Time;durP1;ratioP1;P1;durP2;ratioP2;P2;SDS_P1;SDS_P2;PMS_P1;PMS_P2;Temp;Humidity;BMP_temperature;BMP_pressure;BME280_temperature;BME280_humidity;BME280_pressure;Samples;Min_cycle;Max_cycle;Signal;HPM_P1;HPM_P2
2023/03/03 00:01:05;;;;;;;;;;;;;;;14.98;34.86;101744.63;4770107;30;19961;-57
2023/03/03 00:03:31;;;;;;;;;;;;;;;15.14;34.64;101745.19;4770185;30;19924;-58
2023/03/03 00:05:57;;;;;;;;;;;;;;;15.03;34.71;101747.53;4769819;30;19947;-57
2023/03/03 00:08:24;;;;;;;;;;;;;;;15.12;34.25;101747.28;4769972;30;19924;-57
2023/03/03 00:10:49;;;;;;;;;;;;;;;14.94;34.31;101742.59;4770370;30;19979;-57
2023/03/03 00:13:22;;;;;;;;;;;;;;;14.72;33.58;101734.78;4770104;30;19918;-58
2023/03/03 00:15:48;;;;;;;;;;;;;;;15.00;34.73;101729.09;4769659;30;19925;-57
2023/03/03 00:18:32;;;;;;;;;;;;;;;15.10;34.74;101725.09;4769891;30;19918;-57
2023/03/03 00:21:02;;;;;;;;;;;;;;;14.97;35.72;101731.38;4770234;30;20384;-57
2023/03/03 00:23:30;;;;;;;;;;;;;;;15.00;35.03;101737.19;4769745;30;20008;-57
2023/03/03 00:25:57;;;;;;;;;;;;;;;14.73;34.73;101731.03;4769568;30;19924;-57
2023/03/03 00:28:30;;;;;;;;;;;;;;;14.47;35.48;101731.91;4753649;30;20308;-57
2023/03/03 00:31:00;;;;;;;;;;;;;;;14.75;37.03;101730.81;4769520;30;20370;-57
2023/03/03 00:33:28;;;;;;;;;;;;;;;14.88;36.24;101729.94;4769641;30;20031;-57
2023/03/03 00:35:55;;;;;;;;;;;;;;;14.91;34.86;101727.66;4769333;30;19924;-60
2023/03/03 00:38:21;;;;;;;;;;;;;;;14.72;35.96;101733.97;4768386;30;19991;-59
2023/03/03 00:40:47;;;;;;;;;;;;;;;14.62;36.16;101741.66;4769486;30;19922;-57
2023/03/03 00:43:21;;;;;;;;;;;;;;;14.74;36.88;101740.78;4769211;30;19983;-57
2023/03/03 00:45:48;;;;;;;;;;;;;;;14.63;36.16;101738.72;4769167;30;19918;-57
2023/03/03 00:48:28;;;;;;;;;;;;;;;14.36;36.99;101732.53;4769482;30;19921;-57
2023/03/03 00:50:56;;;;;;;;;;;;;;;14.36;37.48;101729.00;4769191;30;19918;-58
2023/03/03 00:53:22;;;;;;;;;;;;;;;14.39;37.72;101715.97;4779458;30;20434;-57
2023/03/03 00:55:49;;;;;;;;;;;;;;;14.13;38.37;101718.69;4786755;30;19951;-57
2023/03/03 00:58:15;;;;;;;;;;;;;;;14.13;37.89;101724.88;4787193;30;19917;-57
2023/03/03 01:00:41;;;;;;;;;;;;;;;13.94;38.29;101718.47;4787093;30;19917;-57
2023/03/03 01:03:08;;;;;;;;;;;;;;;13.77;37.30;101719.94;4787157;30;20012;-57
2023/03/03 01:05:34;;;;;;;;;;;;;;;13.90;38.47;101711.03;4786559;30;19921;-57
2023/03/03 01:08:00;;;;;;;;;;;;;;;13.67;38.85;101700.66;4773460;30;20365;-58
2023/03/03 01:10:27;;;;;;;;;;;;;;;13.81;38.36;101701.50;4768896;30;19928;-57
2023/03/03 01:12:54;;;;;;;;;;;;;;;13.53;37.40;101701.66;4769042;30;19921;-58
2023/03/03 01:15:20;;;;;;;;;;;;;;;13.42;39.08;101706.59;4768692;30;20594;-59
2023/03/03 01:17:46;;;;;;;;;;;;;;;13.66;40.47;101707.09;4768985;30;19994;-57
2023/03/03 01:20:13;;;;;;;;;;;;;;;13.68;41.90;101718.47;4779932;30;19983;-57
2023/03/03 01:22:39;;;;;;;;;;;;;;;13.77;41.53;101727.16;4770809;30;19984;-57
2023/03/03 01:25:05;;;;;;;;;;;;;;;13.54;41.98;101735.59;4768273;30;19921;-57
2023/03/03 01:27:31;;;;;;;;;;;;;;;13.58;41.63;101742.22;4768862;30;19924;-57
2023/03/03 01:29:57;;;;;;;;;;;;;;;13.53;41.45;101744.69;4768641;30;20297;-57
2023/03/03 01:32:24;;;;;;;;;;;;;;;13.65;41.35;101751.13;4768994;30;20292;-57
2023/03/03 01:34:50;;;;;;;;;;;;;;;13.58;41.37;101745.75;4770721;30;20381;-57
2023/03/03 01:37:16;;;;;;;;;;;;;;;13.72;41.54;101750.13;4788252;30;19921;-57
2023/03/03 01:39:41;;;;;;;;;;;;;;;13.76;42.37;101750.53;4784630;30;20309;-57
2023/03/03 01:42:08;;;;;;;;;;;;;;;13.75;40.98;101762.34;4773963;30;20292;-57
2023/03/03 01:44:33;;;;;;;;;;;;;;;13.52;41.48;101760.00;4777820;30;19928;-56
2023/03/03 01:47:12;;;;;;;;;;;;;;;13.56;42.70;101761.28;4770648;30;19918;-57
2023/03/03 01:49:44;;;;;;;;;;;;;;;13.22;45.88;101758.69;4780778;30;19929;-58
2023/03/03 01:52:32;;;;;;;;;;;;;;;13.17;46.13;101767.31;4774048;30;19918;-58
2023/03/03 01:55:01;;;;;;;;;;;;;;;13.12;46.73;101797.47;4778684;30;19917;-58
2023/03/03 01:57:30;;;;;;;;;;;;;;;12.91;48.14;101797.56;4773833;30;20241;-57
2023/03/03 01:59:58;;;;;;;;;;;;;;;12.75;49.32;101812.13;4780609;30;19947;-58
2023/03/03 02:02:25;;;;;;;;;;;;;;;12.68;49.72;101814.78;4784627;30;19930;-58
2023/03/03 02:04:51;;;;;;;;;;;;;;;12.63;50.70;101813.72;4774812;30;20359;-58
2023/03/03 02:07:18;;;;;;;;;;;;;;;12.41;51.85;101820.97;4786936;30;19925;-57
2023/03/03 02:09:49;;;;;;;;;;;;;;;12.40;52.58;101812.09;4786570;29;19921;-57
2023/03/03 02:12:17;;;;;;;;;;;;;;;12.13;53.78;101812.91;4779629;29;19925;-58
2023/03/03 02:14:43;;;;;;;;;;;;;;;11.88;55.07;101829.38;4771695;30;19922;-58
2023/03/03 02:17:09;;;;;;;;;;;;;;;11.66;55.99;101837.53;4772022;30;19917;-57
2023/03/03 02:19:50;;;;;;;;;;;;;;;11.59;56.41;101832.09;4775456;30;20365;-58
2023/03/03 02:22:20;;;;;;;;;;;;;;;11.48;57.53;101835.25;4790033;29;20296;-57
2023/03/03 02:24:50;;;;;;;;;;;;;;;11.23;58.72;101842.78;4790069;30;19926;-57
2023/03/03 02:27:16;;;;;;;;;;;;;;;10.90;59.80;101842.31;4790110;30;19984;-57
2023/03/03 02:29:42;;;;;;;;;;;;;;;10.68;60.73;101844.88;4790054;30;19921;-57
2023/03/03 02:32:08;;;;;;;;;;;;;;;10.46;61.77;101845.75;4789784;30;20350;-57
2023/03/03 02:34:50;;;;;;;;;;;;;;;10.37;62.09;101842.31;4789639;30;20348;-57
2023/03/03 02:37:16;;;;;;;;;;;;;;;10.46;61.59;101851.09;4789381;30;20369;-57
2023/03/03 02:39:43;;;;;;;;;;;;;;;10.45;62.18;101868.19;4790017;30;20556;-57
2023/03/03 02:42:12;;;;;;;;;;;;;;;10.51;62.04;101881.69;4789509;29;19926;-57
2023/03/03 02:44:38;;;;;;;;;;;;;;;10.53;61.83;101878.81;4789087;29;20297;-58
2023/03/03 02:47:04;;;;;;;;;;;;;;;10.62;61.33;101860.84;4789641;30;20400;-57
2023/03/03 02:49:31;;;;;;;;;;;;;;;10.63;61.15;101844.59;4789791;30;19924;-57
2023/03/03 02:51:57;;;;;;;;;;;;;;;10.57;61.50;101839.97;4789775;30;20373;-57
2023/03/03 02:54:24;;;;;;;;;;;;;;;10.56;60.98;101825.75;4788778;29;20023;-57
2023/03/03 02:56:50;;;;;;;;;;;;;;;10.66;60.72;101819.28;4770837;30;20293;-57
2023/03/03 02:59:16;;;;;;;;;;;;;;;10.72;60.23;101821.25;4786603;30;20388;-57
2023/03/03 03:01:43;;;;;;;;;;;;;;;10.74;60.01;101825.41;4772865;30;20373;-56
2023/03/03 03:04:10;;;;;;;;;;;;;;;10.73;60.17;101825.59;4769225;30;19925;-56
2023/03/03 03:06:36;;;;;;;;;;;;;;;10.87;59.62;101824.75;4773089;30;20305;-58
2023/03/03 03:09:03;;;;;;;;;;;;;;;10.82;59.32;101817.28;4784634;30;19925;-57
2023/03/03 03:11:28;;;;;;;;;;;;;;;10.86;59.27;101806.19;4783950;30;19922;-53
2023/03/03 03:13:54;;;;;;;;;;;;;;;10.86;59.06;101803.53;4788721;30;19927;-56
2023/03/03 03:16:20;;;;;;;;;;;;;;;10.92;58.83;101808.97;4788810;30;19925;-56
2023/03/03 03:18:46;;;;;;;;;;;;;;;10.92;58.74;101803.59;4776410;30;19918;-56
2023/03/03 03:21:12;;;;;;;;;;;;;;;10.95;58.70;101802.44;4770732;30;20393;-57
2023/03/03 03:23:39;;;;;;;;;;;;;;;11.28;57.76;101809.06;4770901;30;19996;-57
2023/03/03 03:26:05;;;;;;;;;;;;;;;11.14;58.02;101809.06;4771168;30;19918;-57
2023/03/03 03:28:31;;;;;;;;;;;;;;;11.08;57.83;101799.91;4770962;30;19922;-57
2023/03/03 03:30:57;;;;;;;;;;;;;;;10.96;58.28;101799.56;4783287;30;20387;-58
2023/03/03 03:33:23;;;;;;;;;;;;;;;11.03;58.07;101802.31;4788658;30;19918;-57
2023/03/03 03:35:50;;;;;;;;;;;;;;;11.09;58.01;101798.91;4788492;30;19975;-57
2023/03/03 03:38:16;;;;;;;;;;;;;;;11.04;58.03;101796.75;4785806;30;19970;-45
2023/03/03 03:40:43;;;;;;;;;;;;;;;11.06;57.94;101808.16;4788447;30;19921;-49
2023/03/03 03:43:08;;;;;;;;;;;;;;;10.92;58.32;101805.47;4787823;29;19930;-50
2023/03/03 03:45:34;;;;;;;;;;;;;;;11.05;58.14;101798.44;4771798;30;20430;-51
2023/03/03 03:48:00;;;;;;;;;;;;;;;11.09;58.10;101798.91;4785003;29;20373;-50
2023/03/03 03:50:26;;;;;;;;;;;;;;;11.15;58.09;101797.31;4781944;30;19925;-49
2023/03/03 03:52:52;;;;;;;;;;;;;;;11.03;58.40;101789.75;4788052;30;19918;-51
2023/03/03 03:55:18;;;;;;;;;;;;;;;10.82;58.85;101789.66;4785522;30;19930;-51
2023/03/03 03:57:44;;;;;;;;;;;;;;;10.85;58.93;101786.63;4776160;30;20071;-53
2023/03/03 04:00:10;;;;;;;;;;;;;;;10.82;58.87;101782.44;4783606;30;19929;-50
2023/03/03 04:02:36;;;;;;;;;;;;;;;10.92;58.56;101778.69;4777411;29;19991;-49
2023/03/03 04:05:02;;;;;;;;;;;;;;;10.82;58.91;101787.81;4787878;30;19922;-52
2023/03/03 04:07:28;;;;;;;;;;;;;;;10.78;58.93;101791.91;4788010;30;19928;-50
2023/03/03 04:09:54;;;;;;;;;;;;;;;10.95;58.70;101808.63;4788013;30;19921;-49
2023/03/03 04:12:20;;;;;;;;;;;;;;;10.79;58.98;101809.63;4788185;30;20437;-51
2023/03/03 04:14:46;;;;;;;;;;;;;;;10.71;59.36;101809.69;4793788;24;19945;-50
2023/03/03 04:17:18;;;;;;;;;;;;;;;10.72;59.42;101811.38;4794350;29;19929;-52
2023/03/03 04:19:44;;;;;;;;;;;;;;;10.67;59.70;101804.91;4774653;30;20369;-49
2023/03/03 04:22:11;;;;;;;;;;;;;;;10.67;59.93;101795.03;4790541;29;19949;-49
2023/03/03 04:24:37;;;;;;;;;;;;;;;10.65;60.00;101797.03;4805863;29;19921;-50
2023/03/03 04:27:03;;;;;;;;;;;;;;;10.70;60.02;101796.50;4805893;29;19924;-51
2023/03/03 04:29:29;;;;;;;;;;;;;;;10.72;59.90;101789.94;4806024;29;19997;-53
2023/03/03 04:31:55;;;;;;;;;;;;;;;10.81;60.08;101791.50;4806159;29;19975;-53
2023/03/03 04:34:21;;;;;;;;;;;;;;;10.74;60.27;101803.97;4779299;29;19929;-50
2023/03/03 04:36:46;;;;;;;;;;;;;;;10.78;60.58;101801.78;4794477;29;19921;-53
2023/03/03 04:39:12;;;;;;;;;;;;;;;10.81;60.81;101804.06;4781549;29;20440;-53
2023/03/03 04:41:38;;;;;;;;;;;;;;;10.84;61.36;101801.88;4787279;30;19921;-53
2023/03/03 04:44:04;;;;;;;;;;;;;;;10.81;62.28;101810.25;4787229;30;20373;-52
2023/03/03 04:46:30;;;;;;;;;;;;;;;10.84;62.18;101817.94;4792101;29;19970;-53
2023/03/03 04:48:56;;;;;;;;;;;;;;;10.67;63.02;101816.44;4805198;29;19943;-48
2023/03/03 04:51:22;;;;;;;;;;;;;;;10.77;63.07;101822.38;4788604;29;19921;-51
2023/03/03 04:53:48;;;;;;;;;;;;;;;10.70;63.27;101821.41;4780409;30;19921;-51
2023/03/03 04:56:14;;;;;;;;;;;;;;;10.88;63.17;101817.56;4780289;29;20392;-48
2023/03/03 04:58:40;;;;;;;;;;;;;;;10.65;64.03;101818.44;4779257;29;19926;-50
2023/03/03 05:01:06;;;;;;;;;;;;;;;10.75;63.63;101827.06;4781157;30;19925;-53
2023/03/03 05:03:32;;;;;;;;;;;;;;;10.69;63.45;101835.00;4773639;29;19921;-52
2023/03/03 05:05:57;;;;;;;;;;;;;;;10.57;63.83;101837.28;4780595;30;20254;-49
2023/03/03 05:08:23;;;;;;;;;;;;;;;10.61;63.71;101846.63;4784621;29;19918;-49
2023/03/03 05:10:53;;;;;;;;;;;;;;;10.57;63.79;101850.69;4786755;30;19992;-49
2023/03/03 05:13:19;;;;;;;;;;;;;;;10.41;64.03;101858.84;4787655;30;20344;-49
2023/03/03 05:15:51;;;;;;;;;;;;;;;10.43;64.09;101867.50;4791361;29;19921;-52
2023/03/03 05:18:18;;;;;;;;;;;;;;;10.30;64.39;101868.13;4805273;29;19996;-52
2023/03/03 05:20:44;;;;;;;;;;;;;;;10.26;64.38;101867.63;4804663;29;19917;-52
2023/03/03 05:23:10;;;;;;;;;;;;;;;10.41;64.01;101869.53;4787337;30;20059;-53
2023/03/03 05:25:37;;;;;;;;;;;;;;;10.47;64.02;101869.66;4783013;30;19921;-49
2023/03/03 05:28:03;;;;;;;;;;;;;;;10.34;64.39;101866.75;4769415;30;19929;-52
2023/03/03 05:30:29;;;;;;;;;;;;;;;10.25;64.57;101865.97;4769341;30;19917;-52
2023/03/03 05:32:55;;;;;;;;;;;;;;;10.29;64.43;101861.94;4774573;30;19922;-52
2023/03/03 05:35:22;;;;;;;;;;;;;;;10.36;64.28;101864.72;4773329;29;20354;-52
2023/03/03 05:37:48;;;;;;;;;;;;;;;10.27;64.77;101872.00;4775359;30;19922;-51
2023/03/03 05:40:14;;;;;;;;;;;;;;;10.30;64.29;101876.16;4773249;29;19956;-52
2023/03/03 05:42:40;;;;;;;;;;;;;;;10.25;64.51;101871.34;4769948;29;19957;-52
2023/03/03 05:45:06;;;;;;;;;;;;;;;10.17;64.70;101859.84;4771782;30;19922;-50
2023/03/03 05:47:32;;;;;;;;;;;;;;;10.20;65.28;101849.59;4783035;29;19999;-49
2023/03/03 05:49:59;;;;;;;;;;;;;;;10.25;65.16;101854.44;4775161;29;20408;-51
2023/03/03 05:52:25;;;;;;;;;;;;;;;10.03;65.51;101859.56;4777203;29;19917;-49
2023/03/03 05:54:51;;;;;;;;;;;;;;;9.95;65.79;101856.97;4774424;30;19921;-52
2023/03/03 05:57:17;;;;;;;;;;;;;;;9.90;65.51;101861.19;4786999;30;20036;-49
2023/03/03 05:59:42;;;;;;;;;;;;;;;9.75;66.14;101856.56;4781720;30;19918;-50
2023/03/03 06:02:08;;;;;;;;;;;;;;;9.57;66.07;101866.69;4769203;30;19960;-52
2023/03/03 06:04:34;;;;;;;;;;;;;;;9.82;65.73;101867.41;4768836;30;19952;-52
2023/03/03 06:07:00;;;;;;;;;;;;;;;9.74;65.62;101854.09;4774458;30;19917;-52
2023/03/03 06:09:26;;;;;;;;;;;;;;;9.70;65.60;101856.25;4786972;30;19921;-50
2023/03/03 06:11:52;;;;;;;;;;;;;;;9.84;65.50;101853.88;4786834;30;19917;-50
2023/03/03 06:14:19;;;;;;;;;;;;;;;9.45;66.64;101857.41;4786647;30;19924;-52
2023/03/03 06:16:46;;;;;;;;;;;;;;;9.45;66.99;101868.09;4781277;30;19961;-50
2023/03/03 06:19:12;;;;;;;;;;;;;;;9.43;66.73;101870.94;4768779;30;19925;-51
2023/03/03 06:21:38;;;;;;;;;;;;;;;9.39;66.83;101863.44;4772252;30;19922;-52
2023/03/03 06:24:04;;;;;;;;;;;;;;;9.51;66.36;101867.41;4772144;30;20346;-53
2023/03/03 06:26:31;;;;;;;;;;;;;;;9.56;66.45;101873.06;4772230;30;19978;-51
2023/03/03 06:28:56;;;;;;;;;;;;;;;9.33;66.75;101866.78;4776663;29;19926;-53
2023/03/03 06:31:22;;;;;;;;;;;;;;;9.42;66.74;101857.75;4772079;29;19988;-50
2023/03/03 06:33:48;;;;;;;;;;;;;;;9.62;66.11;101852.81;4772188;30;19996;-50
2023/03/03 06:36:14;;;;;;;;;;;;;;;9.36;66.39;101848.59;4771582;30;20002;-48
2023/03/03 06:38:40;;;;;;;;;;;;;;;9.38;66.49;101851.91;4771790;30;19921;-51
2023/03/03 06:41:07;;;;;;;;;;;;;;;9.31;66.84;101836.75;4771624;30;19922;-48
2023/03/03 06:43:33;;;;;;;;;;;;;;;9.26;66.63;101831.91;4777047;30;20386;-52
2023/03/03 06:45:59;;;;;;;;;;;;;;;9.16;66.61;101834.81;4789294;30;19917;-51
2023/03/03 06:48:25;;;;;;;;;;;;;;;9.21;67.23;101828.94;4770221;30;19918;-52
2023/03/03 06:50:51;;;;;;;;;;;;;;;9.04;67.56;101819.31;4785736;30;19921;-51
2023/03/03 06:53:17;;;;;;;;;;;;;;;9.26;67.31;101818.56;4787051;30;20287;-49
2023/03/03 06:55:44;;;;;;;;;;;;;;;9.04;67.66;101827.31;4787807;29;19920;-50
2023/03/03 06:58:14;;;;;;;;;;;;;;;9.26;67.36;101821.22;4807404;29;20356;-51
2023/03/03 07:00:42;;;;;;;;;;;;;;;9.01;67.49;101823.19;4781408;29;20404;-51
2023/03/03 07:03:16;;;;;;;;;;;;;;;9.10;67.72;101829.31;4785321;30;19917;-53
2023/03/03 07:05:42;;;;;;;;;;;;;;;8.81;68.57;101832.56;4788522;30;19932;-52
2023/03/03 07:08:18;;;;;;;;;;;;;;;8.84;68.53;101835.72;4785276;30;19917;-50
2023/03/03 07:10:46;;;;;;;;;;;;;;;8.85;68.62;101842.72;4794328;29;19925;-52
2023/03/03 07:13:24;;;;;;;;;;;;;;;8.82;68.38;101844.91;4807143;29;19916;-49
2023/03/03 07:15:51;;;;;;;;;;;;;;;8.77;68.45;101855.25;4771214;30;19922;-51
2023/03/03 07:18:28;;;;;;;;;;;;;;;8.69;68.58;101856.94;4788963;30;19986;-50
2023/03/03 07:20:54;;;;;;;;;;;;;;;8.68;68.72;101859.78;4789105;30;19913;-52
2023/03/03 07:23:23;;;;;;;;;;;;;;;8.66;68.72;101867.09;4787137;30;19925;-52
2023/03/03 07:25:49;;;;;;;;;;;;;;;8.61;68.75;101874.81;4776889;29;19913;-49
2023/03/03 07:28:26;;;;;;;;;;;;;;;8.56;68.84;101877.97;4807328;29;19928;-52
2023/03/03 07:30:53;;;;;;;;;;;;;;;8.59;68.49;101876.78;4806664;29;20322;-50
2023/03/03 07:33:29;;;;;;;;;;;;;;;8.46;68.69;101888.81;4806816;29;19924;-51
2023/03/03 07:35:56;;;;;;;;;;;;;;;8.36;68.71;101888.13;4792588;29;19923;-51
2023/03/03 07:38:25;;;;;;;;;;;;;;;8.27;69.33;101906.91;4788678;30;19917;-53
2023/03/03 07:40:52;;;;;;;;;;;;;;;8.29;68.99;101905.78;4788709;30;19975;-49
2023/03/03 07:43:27;;;;;;;;;;;;;;;8.35;68.87;101897.09;4772201;30;19929;-51
2023/03/03 07:45:56;;;;;;;;;;;;;;;8.34;68.76;101884.78;4770400;30;19918;-48
2023/03/03 07:48:29;;;;;;;;;;;;;;;8.18;68.83;101900.75;4770668;30;20381;-50
2023/03/03 07:50:57;;;;;;;;;;;;;;;7.96;69.83;101885.38;4770433;30;19926;-50
2023/03/03 07:53:27;;;;;;;;;;;;;;;7.76;71.34;101887.47;4770551;30;19945;-49
2023/03/03 07:55:53;;;;;;;;;;;;;;;7.58;72.31;101893.75;4770267;30;19918;-53
2023/03/03 07:58:27;;;;;;;;;;;;;;;7.41;72.95;101894.69;4771096;30;20288;-51
2023/03/03 08:01:11;;;;;;;;;;;;;;;7.57;72.10;101896.59;4770454;30;19924;-50
2023/03/03 08:03:37;;;;;;;;;;;;;;;7.90;70.66;101886.88;4794812;29;19980;-49
2023/03/03 08:06:25;;;;;;;;;;;;;;;7.80;70.43;101883.50;4806353;29;20346;-52
2023/03/03 08:08:51;;;;;;;;;;;;;;;7.75;70.51;101883.16;4799880;29;20404;-52
2023/03/03 08:11:17;;;;;;;;;;;;;;;7.50;71.50;101875.09;4777749;30;19940;-52
2023/03/03 08:13:44;;;;;;;;;;;;;;;7.33;72.86;101881.34;4777377;30;20393;-53
2023/03/03 08:16:10;;;;;;;;;;;;;;;7.49;72.33;101884.03;4787613;29;19928;-52
2023/03/03 08:18:39;;;;;;;;;;;;;;;7.50;71.92;101884.91;4782204;30;19921;-51
2023/03/03 08:21:04;;;;;;;;;;;;;;;7.48;71.77;101887.72;4787646;30;20278;-51
2023/03/03 08:23:30;;;;;;;;;;;;;;;7.47;71.38;101887.88;4776107;30;19979;-49
2023/03/03 08:25:56;;;;;;;;;;;;;;;7.23;72.33;101894.75;4804584;29;20372;-51
2023/03/03 08:28:22;;;;;;;;;;;;;;;7.24;72.73;101891.09;4800592;29;20381;-49
2023/03/03 08:30:49;;;;;;;;;;;;;;;7.30;72.39;101881.63;4787549;30;19974;-51
2023/03/03 08:33:16;;;;;;;;;;;;;;;7.33;72.20;101887.50;4778892;30;19922;-48
2023/03/03 08:35:42;;;;;;;;;;;;;;;7.40;71.97;101891.19;4769375;30;19973;-52
2023/03/03 08:38:08;;;;;;;;;;;;;;;7.50;71.15;101893.72;4769757;30;19918;-52
2023/03/03 08:40:35;;;;;;;;;;;;;;;7.33;71.59;101894.66;4780854;29;20020;-50
2023/03/03 08:43:00;;;;;;;;;;;;;;;7.27;71.33;101889.94;4805225;29;19920;-51
2023/03/03 08:45:26;;;;;;;;;;;;;;;7.17;71.63;101892.72;4805124;29;19925;-49
2023/03/03 08:47:52;;;;;;;;;;;;;;;7.21;71.83;101888.75;4805691;29;19913;-52
2023/03/03 08:50:18;;;;;;;;;;;;;;;7.14;72.62;101885.88;4786325;29;19925;-52
2023/03/03 08:52:44;;;;;;;;;;;;;;;6.99;72.98;101887.44;4769506;30;20408;-52
2023/03/03 08:55:11;;;;;;;;;;;;;;;6.90;74.17;101885.75;4769275;30;20008;-52
2023/03/03 08:57:38;;;;;;;;;;;;;;;6.94;73.66;101875.59;4769162;30;20298;-52
2023/03/03 09:00:05;;;;;;;;;;;;;;;6.93;73.34;101872.09;4769738;30;19917;-52
2023/03/03 09:02:30;;;;;;;;;;;;;;;6.85;73.88;101862.25;4769414;30;19917;-52
2023/03/03 09:04:56;;;;;;;;;;;;;;;6.91;73.13;101867.94;4769110;30;20266;-51
2023/03/03 09:07:22;;;;;;;;;;;;;;;6.91;72.78;101876.75;4770088;30;19929;-51
2023/03/03 09:09:48;;;;;;;;;;;;;;;6.57;74.85;101872.19;4769122;30;19913;-52
2023/03/03 09:12:14;;;;;;;;;;;;;;;6.97;73.92;101872.63;4769138;30;19925;-52
2023/03/03 09:14:40;;;;;;;;;;;;;;;6.94;73.31;101872.94;4769017;30;19922;-52
2023/03/03 09:17:18;;;;;;;;;;;;;;;6.83;73.21;101874.06;4779982;29;20384;-53
2023/03/03 09:19:44;;;;;;;;;;;;;;;6.86;73.24;101873.72;4804965;29;20471;-52
2023/03/03 09:22:24;;;;;;;;;;;;;;;6.78;73.37;101869.19;4804873;29;19963;-52
2023/03/03 09:24:52;;;;;;;;;;;;;;;6.52;75.60;101876.31;4777629;29;19918;-52
2023/03/03 09:27:26;;;;;;;;;;;;;;;6.52;75.53;101869.16;4769079;30;19945;-51
2023/03/03 09:29:52;;;;;;;;;;;;;;;6.41;76.33;101880.03;4769123;30;19924;-50
2023/03/03 09:32:30;;;;;;;;;;;;;;;6.24;77.20;101868.44;4781790;30;19921;-48
2023/03/03 09:34:55;;;;;;;;;;;;;;;6.28;77.45;101856.50;4769559;30;19937;-49
2023/03/03 09:37:23;;;;;;;;;;;;;;;6.45;76.91;101857.47;4779196;24;19925;-49
2023/03/03 09:39:53;;;;;;;;;;;;;;;6.45;76.83;101846.84;4786347;29;19945;-51
2023/03/03 09:42:31;;;;;;;;;;;;;;;6.64;76.14;101845.81;4786384;30;19937;-50
2023/03/03 09:45:06;;;;;;;;;;;;;;;6.67;75.92;101829.53;4783867;30;19964;-51
2023/03/03 09:47:38;;;;;;;;;;;;;;;6.66;76.79;101832.34;4786802;30;19917;-52
2023/03/03 09:50:14;;;;;;;;;;;;;;;6.66;77.34;101827.03;4782846;30;19918;-51
2023/03/03 09:52:50;;;;;;;;;;;;;;;6.70;77.65;101828.38;4768876;30;19944;-51
2023/03/03 09:55:22;;;;;;;;;;;;;;;6.67;78.13;101820.72;4770026;30;20358;-50
2023/03/03 09:57:58;;;;;;;;;;;;;;;6.71;77.79;101822.06;4778149;30;19960;-52
2023/03/03 10:00:45;;;;;;;;;;;;;;;6.72;78.27;101810.44;4790396;30;19917;-52
2023/03/03 10:03:11;;;;;;;;;;;;;;;6.64;78.31;101808.56;4789603;30;19959;-52
2023/03/03 10:05:37;;;;;;;;;;;;;;;6.58;78.61;101802.03;4781155;30;19973;-52
2023/03/03 10:08:21;;;;;;;;;;;;;;;6.61;78.06;101798.25;4789241;30;20382;-51
2023/03/03 10:11:00;;;;;;;;;;;;;;;6.60;77.79;101810.69;4790594;30;19921;-48
2023/03/03 10:13:29;;;;;;;;;;;;;;;6.59;77.73;101805.53;4788540;30;19922;-49
2023/03/03 10:16:04;;;;;;;;;;;;;;;6.56;77.43;101812.00;4773364;30;20421;-50
2023/03/03 10:18:32;;;;;;;;;;;;;;;6.58;76.97;101810.03;4772537;30;20363;-50
2023/03/03 10:21:04;;;;;;;;;;;;;;;6.70;76.18;101801.78;4772375;30;19913;-48
2023/03/03 10:23:45;;;;;;;;;;;;;;;6.59;76.34;101808.19;4770704;30;20064;-49
2023/03/03 10:26:34;;;;;;;;;;;;;;;6.67;76.91;101810.09;4771316;30;19922;-50
2023/03/03 10:29:06;;;;;;;;;;;;;;;6.57;76.91;101808.34;4764617;30;20309;-48
2023/03/03 10:31:41;;;;;;;;;;;;;;;6.54;77.03;101795.34;4770159;30;19922;-52
2023/03/03 10:34:19;;;;;;;;;;;;;;;6.67;77.19;101802.09;4771078;30;20338;-52
2023/03/03 10:36:52;;;;;;;;;;;;;;;6.72;76.65;101805.97;4770846;30;20019;-50
2023/03/03 10:39:38;;;;;;;;;;;;;;;6.56;77.06;101816.50;4770719;30;20381;-51
2023/03/03 10:42:04;;;;;;;;;;;;;;;6.49;77.18;101818.94;4770546;30;20293;-51
2023/03/03 10:44:33;;;;;;;;;;;;;;;6.49;76.92;101815.44;4770752;30;20425;-51
2023/03/03 10:47:11;;;;;;;;;;;;;;;6.47;76.94;101818.25;4769560;30;20340;-51
2023/03/03 10:49:55;;;;;;;;;;;;;;;6.43;76.65;101810.75;4771588;30;19965;-50
2023/03/03 10:52:36;;;;;;;;;;;;;;;6.37;76.40;101814.03;4769670;30;19922;-50
2023/03/03 10:55:14;;;;;;;;;;;;;;;6.33;76.45;101798.38;4771224;30;19924;-50
2023/03/03 10:57:51;;;;;;;;;;;;;;;6.00;78.45;101799.13;4769502;30;20604;-49
2023/03/03 11:00:26;;;;;;;;;;;;;;;6.13;78.59;101799.53;4770981;30;19922;-51
2023/03/03 11:03:10;;;;;;;;;;;;;;;6.45;76.38;101787.50;4751771;30;20289;-50
2023/03/03 11:05:42;;;;;;;;;;;;;;;6.06;77.97;101787.88;4769070;30;19929;-51
2023/03/03 11:08:11;;;;;;;;;;;;;;;6.02;78.07;101802.44;4767312;30;19925;-52
2023/03/03 11:10:40;;;;;;;;;;;;;;;6.05;77.80;101796.81;4779334;30;19917;-51
2023/03/03 11:13:12;;;;;;;;;;;;;;;5.77;79.23;101796.00;4787940;30;19925;-51
2023/03/03 11:15:48;;;;;;;;;;;;;;;5.93;78.13;101788.22;4771436;30;19929;-49
2023/03/03 11:18:19;;;;;;;;;;;;;;;6.05;77.01;101783.50;4771629;30;19987;-48
2023/03/03 11:20:51;;;;;;;;;;;;;;;5.93;77.27;101787.41;4771560;30;19925;-49
2023/03/03 11:23:36;;;;;;;;;;;;;;;5.98;77.40;101787.78;4770729;30;19918;-50
2023/03/03 11:26:07;;;;;;;;;;;;;;;5.84;77.16;101794.44;4778309;30;19918;-47
2023/03/03 11:28:50;;;;;;;;;;;;;;;5.31;80.59;101789.88;4789126;30;20313;-50
2023/03/03 11:31:31;;;;;;;;;;;;;;;5.75;78.79;101785.56;4789056;30;19917;-51
2023/03/03 11:33:57;;;;;;;;;;;;;;;5.81;77.15;101792.06;4788870;30;19918;-49
2023/03/03 11:36:22;;;;;;;;;;;;;;;5.69;77.76;101795.94;4789002;30;19929;-50
2023/03/03 11:38:49;;;;;;;;;;;;;;;5.71;76.78;101808.06;4788751;30;19944;-51
2023/03/03 11:41:17;;;;;;;;;;;;;;;5.57;77.58;101798.81;4748222;30;19922;-49
2023/03/03 11:43:50;;;;;;;;;;;;;;;5.56;77.35;101805.13;4752421;30;19918;-48
2023/03/03 11:46:29;;;;;;;;;;;;;;;5.74;76.61;101804.31;4752715;30;20004;-51
2023/03/03 11:48:55;;;;;;;;;;;;;;;5.76;76.85;101799.66;4752793;30;20405;-49
2023/03/03 11:51:38;;;;;;;;;;;;;;;5.54;76.57;101804.41;4752851;30;19918;-48
2023/03/03 11:54:03;;;;;;;;;;;;;;;5.44;77.65;101801.00;4752508;30;19992;-51
2023/03/03 11:56:49;;;;;;;;;;;;;;;5.38;77.92;101798.91;4756427;30;20024;-49
2023/03/03 11:59:34;;;;;;;;;;;;;;;5.74;76.50;101797.16;4756277;30;20398;-50
2023/03/03 12:02:23;;;;;;;;;;;;;;;5.26;78.51;101794.81;4755084;30;19922;-49
2023/03/03 12:04:58;;;;;;;;;;;;;;;5.14;80.23;101793.34;4765008;30;19926;-50
2023/03/03 12:07:36;;;;;;;;;;;;;;;5.28;79.41;101799.00;4770267;30;19953;-51
2023/03/03 12:10:11;;;;;;;;;;;;;;;4.80;82.42;101788.59;4770171;30;19984;-50
2023/03/03 12:12:44;;;;;;;;;;;;;;;4.73;83.06;101785.69;4770036;30;19921;-49
2023/03/03 12:15:29;;;;;;;;;;;;;;;4.73;83.50;101780.38;4769328;30;19972;-51
2023/03/03 12:17:58;;;;;;;;;;;;;;;4.95;82.15;101786.31;4769415;30;19990;-51
2023/03/03 12:20:34;;;;;;;;;;;;;;;5.01;81.19;101783.91;4770289;30;20120;-51
2023/03/03 12:23:00;;;;;;;;;;;;;;;5.09;80.42;101782.31;4769905;30;20016;-51
2023/03/03 12:25:36;;;;;;;;;;;;;;;5.18;79.74;101781.44;4770315;30;19918;-50
2023/03/03 12:28:21;;;;;;;;;;;;;;;5.16;79.57;101778.09;4769582;30;19922;-48
2023/03/03 12:31:00;;;;;;;;;;;;;;;4.74;81.04;101783.88;4752947;30;19921;-51
2023/03/03 12:33:49;;;;;;;;;;;;;;;5.00;79.98;101768.97;4769780;30;19917;-51
2023/03/03 12:36:24;;;;;;;;;;;;;;;5.00;79.44;101774.28;4768282;30;19918;-48
2023/03/03 12:38:55;;;;;;;;;;;;;;;5.16;78.93;101783.41;4769520;30;19937;-50
2023/03/03 12:41:26;;;;;;;;;;;;;;;4.94;79.97;101782.81;4769329;30;20374;-51
2023/03/03 12:44:07;;;;;;;;;;;;;;;4.99;79.55;101782.34;4769531;30;20278;-51
2023/03/03 12:46:53;;;;;;;;;;;;;;;5.09;78.85;101772.53;4769553;30;19918;-51
2023/03/03 12:49:19;;;;;;;;;;;;;;;5.04;79.17;101770.31;4768920;30;19925;-49
2023/03/03 12:51:48;;;;;;;;;;;;;;;5.10;78.66;101765.41;4769596;30;19918;-50
2023/03/03 12:54:32;;;;;;;;;;;;;;;5.07;78.84;101753.28;4769116;30;19918;-51